sensor_id;sensor_type;location;lat;lon;timestamp;pressure;altitude;pressure_sealevel;temperature;humidity
44044;BME280;29709;52.396;16.796;2023-02-13T00:02:22;103692.09;;;7.41;83.68
44044;BME280;29709;52.396;16.796;2023-02-13T00:05:25;103684.01;;;7.38;83.47
44044;BME280;29709;52.396;16.796;2023-02-13T00:08:30;103686.67;;;7.39;83.46
44044;BME280;29709;52.396;16.796;2023-02-13T00:11:33;103687.71;;;7.37;83.03
44044;BME280;29709;52.396;16.796;2023-02-13T00:14:38;103680.38;;;7.37;83.11
44044;BME280;29709;52.396;16.796;2023-02-13T00:17:41;103683.03;;;7.39;82.90
44044;BME280;29709;52.396;16.796;2023-02-13T00:20:44;103684.89;;;7.38;82.25
44044;BME280;29709;52.396;16.796;2023-02-13T00:24:14;103689.99;;;7.46;82.47
44044;BME280;29709;52.396;16.796;2023-02-13T00:27:18;103679.84;;;7.48;82.37
44044;BME280;29709;52.396;16.796;2023-02-13T00:30:21;103668.90;;;7.48;82.10
44044;BME280;29709;52.396;16.796;2023-02-13T00:33:25;103669.23;;;7.42;82.35
44044;BME280;29709;52.396;16.796;2023-02-13T00:36:28;103674.61;;;7.43;82.72
44044;BME280;29709;52.396;16.796;2023-02-13T00:39:31;103678.39;;;7.41;82.57
44044;BME280;29709;52.396;16.796;2023-02-13T00:42:34;103685.06;;;7.35;83.34
44044;BME280;29709;52.396;16.796;2023-02-13T00:45:37;103682.31;;;7.35;83.37
44044;BME280;29709;52.396;16.796;2023-02-13T00:48:40;103677.82;;;7.34;83.36
44044;BME280;29709;52.396;16.796;2023-02-13T00:51:44;103670.41;;;7.36;83.83
44044;BME280;29709;52.396;16.796;2023-02-13T00:55:16;103676.93;;;7.34;83.72
44044;BME280;29709;52.396;16.796;2023-02-13T00:58:20;103674.56;;;7.26;84.36
44044;BME280;29709;52.396;16.796;2023-02-13T01:01:23;103675.78;;;7.20;84.70
44044;BME280;29709;52.396;16.796;2023-02-13T01:04:28;103675.62;;;7.23;84.70
44044;BME280;29709;52.396;16.796;2023-02-13T01:07:33;103673.68;;;7.26;84.89
44044;BME280;29709;52.396;16.796;2023-02-13T01:10:39;103678.20;;;7.27;84.87
44044;BME280;29709;52.396;16.796;2023-02-13T01:13:44;103676.33;;;7.27;85.04
44044;BME280;29709;52.396;16.796;2023-02-13T01:16:48;103673.68;;;7.26;85.19
44044;BME280;29709;52.396;16.796;2023-02-13T01:20:22;103667.58;;;7.20;85.33
44044;BME280;29709;52.396;16.796;2023-02-13T01:23:29;103659.50;;;7.17;85.56
44044;BME280;29709;52.396;16.796;2023-02-13T01:26:33;103661.15;;;7.21;86.02
44044;BME280;29709;52.396;16.796;2023-02-13T01:29:36;103651.08;;;7.22;86.06
44044;BME280;29709;52.396;16.796;2023-02-13T01:32:40;103656.47;;;7.23;85.89
44044;BME280;29709;52.396;16.796;2023-02-13T01:35:44;103657.35;;;7.24;86.04
44044;BME280;29709;52.396;16.796;2023-02-13T01:38:52;103653.81;;;7.22;86.25
44044;BME280;29709;52.396;16.796;2023-02-13T01:41:56;103644.64;;;7.23;86.51
44044;BME280;29709;52.396;16.796;2023-02-13T01:45:29;103650.20;;;7.21;86.32
44044;BME280;29709;52.396;16.796;2023-02-13T01:48:32;103643.75;;;7.22;86.40
44044;BME280;29709;52.396;16.796;2023-02-13T01:51:36;103647.55;;;7.20;86.52
44044;BME280;29709;52.396;16.796;2023-02-13T01:54:41;103644.94;;;7.17;86.44
44044;BME280;29709;52.396;16.796;2023-02-13T01:57:51;103649.44;;;7.18;86.74
44044;BME280;29709;52.396;16.796;2023-02-13T02:00:56;103644.94;;;7.17;86.36
44044;BME280;29709;52.396;16.796;2023-02-13T02:04:09;103642.45;;;7.12;86.79
44044;BME280;29709;52.396;16.796;2023-02-13T02:07:40;103641.48;;;7.13;87.04
44044;BME280;29709;52.396;16.796;2023-02-13T02:10:43;103636.73;;;7.17;87.07
44044;BME280;29709;52.396;16.796;2023-02-13T02:13:47;103626.83;;;7.14;86.79
44044;BME280;29709;52.396;16.796;2023-02-13T02:16:50;103639.63;;;7.14;86.86
44044;BME280;29709;52.396;16.796;2023-02-13T02:20:03;103629.65;;;7.13;87.28
44044;BME280;29709;52.396;16.796;2023-02-13T02:36:49;103622.50;;;7.10;87.12
44044;BME280;29709;52.396;16.796;2023-02-13T02:47:02;103619.41;;;6.99;87.55
44044;BME280;29709;52.396;16.796;2023-02-13T02:50:52;103615.93;;;6.95;87.68
44044;BME280;29709;52.396;16.796;2023-02-13T02:54:06;103609.50;;;6.97;87.80
44044;BME280;29709;52.396;16.796;2023-02-13T02:57:29;103608.48;;;6.99;88.06
44044;BME280;29709;52.396;16.796;2023-02-13T03:00:45;103612.66;;;7.06;87.84
44044;BME280;29709;52.396;16.796;2023-02-13T03:04:03;103615.89;;;7.14;87.60
44044;BME280;29709;52.396;16.796;2023-02-13T03:07:19;103618.88;;;7.10;87.40
44044;BME280;29709;52.396;16.796;2023-02-13T03:10:48;103619.01;;;7.07;87.55
44044;BME280;29709;52.396;16.796;2023-02-13T03:14:06;103619.18;;;7.04;88.16
44044;BME280;29709;52.396;16.796;2023-02-13T03:17:14;103611.77;;;7.06;88.15
44044;BME280;29709;52.396;16.796;2023-02-13T03:24:04;103607.05;;;7.09;87.98
44044;BME280;29709;52.396;16.796;2023-02-13T03:27:25;103609.79;;;7.09;88.60
44044;BME280;29709;52.396;16.796;2023-02-13T03:30:53;103606.08;;;7.10;88.78
44044;BME280;29709;52.396;16.796;2023-02-13T03:37:11;103611.23;;;7.16;88.70
44044;BME280;29709;52.396;16.796;2023-02-13T03:47:09;103610.67;;;7.10;88.98
44044;BME280;29709;52.396;16.796;2023-02-13T03:50:14;103610.42;;;7.14;88.46
44044;BME280;29709;52.396;16.796;2023-02-13T03:53:46;103608.16;;;7.05;88.72
44044;BME280;29709;52.396;16.796;2023-02-13T03:56:53;103611.77;;;7.06;89.02
44044;BME280;29709;52.396;16.796;2023-02-13T04:00:11;103601.71;;;7.06;89.12
44044;BME280;29709;52.396;16.796;2023-02-13T04:03:21;103604.32;;;7.09;89.26
44044;BME280;29709;52.396;16.796;2023-02-13T04:06:37;103596.03;;;7.11;89.25
44044;BME280;29709;52.396;16.796;2023-02-13T04:09:41;103604.32;;;7.09;89.79
44044;BME280;29709;52.396;16.796;2023-02-13T04:13:25;103600.91;;;7.04;89.76
44044;BME280;29709;52.396;16.796;2023-02-13T04:16:34;103598.18;;;7.04;89.90
44044;BME280;29709;52.396;16.796;2023-02-13T04:19:40;103608.16;;;7.05;90.10
44044;BME280;29709;52.396;16.796;2023-02-13T04:22:44;103601.80;;;7.05;90.04
44044;BME280;29709;52.396;16.796;2023-02-13T04:25:50;103607.44;;;7.02;90.07
44044;BME280;29709;52.396;16.796;2023-02-13T04:28:55;103605.51;;;7.04;91.14
44044;BME280;29709;52.396;16.796;2023-02-13T04:32:23;103609.84;;;7.08;90.43
44044;BME280;29709;52.396;16.796;2023-02-13T04:35:27;103612.44;;;7.11;90.22
44044;BME280;29709;52.396;16.796;2023-02-13T04:38:30;103614.84;;;7.17;90.60
44044;BME280;29709;52.396;16.796;2023-02-13T04:41:33;103613.59;;;7.24;90.74
44044;BME280;29709;52.396;16.796;2023-02-13T04:44:36;103621.55;;;7.29;90.22
44044;BME280;29709;52.396;16.796;2023-02-13T04:47:40;103619.86;;;7.26;90.12
44044;BME280;29709;52.396;16.796;2023-02-13T04:50:43;103603.53;;;7.24;90.13
44044;BME280;29709;52.396;16.796;2023-02-13T04:53:47;103607.73;;;7.32;90.27
44044;BME280;29709;52.396;16.796;2023-02-13T04:56:50;103600.95;;;7.39;90.13
44044;BME280;29709;52.396;16.796;2023-02-13T04:59:53;103605.15;;;7.46;90.08
44044;BME280;29709;52.396;16.796;2023-02-13T05:03:22;103615.22;;;7.45;89.70
44044;BME280;29709;52.396;16.796;2023-02-13T05:06:26;103621.83;;;7.41;89.64
44044;BME280;29709;52.396;16.796;2023-02-13T05:09:29;103608.77;;;7.46;89.80
44044;BME280;29709;52.396;16.796;2023-02-13T05:12:32;103615.04;;;7.48;89.72
44044;BME280;29709;52.396;16.796;2023-02-13T05:15:35;103625.85;;;7.51;89.34
44044;BME280;29709;52.396;16.796;2023-02-13T05:18:38;103626.74;;;7.52;89.34
44044;BME280;29709;52.396;16.796;2023-02-13T05:21:41;103624.89;;;7.52;89.21
44044;BME280;29709;52.396;16.796;2023-02-13T05:24:57;103627.54;;;7.54;88.98
44044;BME280;29709;52.396;16.796;2023-02-13T05:28:00;103631.25;;;7.53;88.66
44044;BME280;29709;52.396;16.796;2023-02-13T05:31:29;103636.94;;;7.48;89.24
44044;BME280;29709;52.396;16.796;2023-02-13T05:34:32;103631.34;;;7.51;89.14
44044;BME280;29709;52.396;16.796;2023-02-13T05:37:35;103630.36;;;7.52;88.60
44044;BME280;29709;52.396;16.796;2023-02-13T05:40:38;103633.23;;;7.49;88.98
44044;BME280;29709;52.396;16.796;2023-02-13T05:43:41;103633.31;;;7.48;89.26
44044;BME280;29709;52.396;16.796;2023-02-13T05:46:44;103638.66;;;7.51;88.58
44044;BME280;29709;52.396;16.796;2023-02-13T05:49:47;103641.53;;;7.48;88.47
44044;BME280;29709;52.396;16.796;2023-02-13T05:52:50;103632.68;;;7.43;88.50
44044;BME280;29709;52.396;16.796;2023-02-13T05:55:54;103650.16;;;7.40;88.70
44044;BME280;29709;52.396;16.796;2023-02-13T05:58:57;103650.30;;;7.37;89.22
44044;BME280;29709;52.396;16.796;2023-02-13T06:02:26;103652.22;;;7.35;89.22
44044;BME280;29709;52.396;16.796;2023-02-13T06:05:29;103644.74;;;7.39;88.87
44044;BME280;29709;52.396;16.796;2023-02-13T06:08:32;103647.46;;;7.39;88.96
44044;BME280;29709;52.396;16.796;2023-02-13T06:11:36;103643.84;;;7.38;89.09
44044;BME280;29709;52.396;16.796;2023-02-13T06:14:39;103653.82;;;7.39;88.68
44044;BME280;29709;52.396;16.796;2023-02-13T06:17:43;103658.20;;;7.43;88.79
44044;BME280;29709;52.396;16.796;2023-02-13T06:20:46;103658.41;;;7.39;88.38
44044;BME280;29709;52.396;16.796;2023-02-13T06:23:49;103661.39;;;7.34;88.01
44044;BME280;29709;52.396;16.796;2023-02-13T06:26:53;103659.12;;;7.25;87.80
44044;BME280;29709;52.396;16.796;2023-02-13T06:29:56;103666.28;;;7.28;87.86
44044;BME280;29709;52.396;16.796;2023-02-13T06:32:59;103665.91;;;7.35;87.43
44044;BME280;29709;52.396;16.796;2023-02-13T06:36:02;103671.38;;;7.35;87.23
44044;BME280;29709;52.396;16.796;2023-02-13T06:39:31;103675.24;;;7.31;87.00
44044;BME280;29709;52.396;16.796;2023-02-13T06:42:34;103676.26;;;7.29;86.38
44044;BME280;29709;52.396;16.796;2023-02-13T06:45:37;103669.77;;;7.31;86.99
44044;BME280;29709;52.396;16.796;2023-02-13T06:48:40;103678.11;;;7.28;86.27
44044;BME280;29709;52.396;16.796;2023-02-13T06:51:43;103677.98;;;7.31;86.62
44044;BME280;29709;52.396;16.796;2023-02-13T06:54:46;103681.34;;;7.36;86.33
44044;BME280;29709;52.396;16.796;2023-02-13T06:57:49;103689.65;;;7.35;86.13
44044;BME280;29709;52.396;16.796;2023-02-13T07:00:53;103681.34;;;7.36;86.03
44044;BME280;29709;52.396;16.796;2023-02-13T07:03:56;103684.98;;;7.37;86.05
44044;BME280;29709;52.396;16.796;2023-02-13T07:06:59;103689.27;;;7.42;85.83
44044;BME280;29709;52.396;16.796;2023-02-13T07:10:30;103689.34;;;7.41;85.91
44044;BME280;29709;52.396;16.796;2023-02-13T07:13:33;103691.25;;;7.39;86.05
44044;BME280;29709;52.396;16.796;2023-02-13T07:16:37;103692.37;;;7.35;86.23
44044;BME280;29709;52.396;16.796;2023-02-13T07:19:40;103697.85;;;7.35;86.35
44044;BME280;29709;52.396;16.796;2023-02-13T07:22:43;103695.20;;;7.33;86.13
44044;BME280;29709;52.396;16.796;2023-02-13T07:25:46;103703.56;;;7.30;86.01
44044;BME280;29709;52.396;16.796;2023-02-13T07:28:49;103697.22;;;7.30;86.05
44044;BME280;29709;52.396;16.796;2023-02-13T07:31:52;103699.87;;;7.31;85.81
44044;BME280;29709;52.396;16.796;2023-02-13T07:34:55;103707.12;;;7.32;85.81
44044;BME280;29709;52.396;16.796;2023-02-13T07:37:59;103709.59;;;7.37;85.49
44044;BME280;29709;52.396;16.796;2023-02-13T07:41:30;103709.03;;;7.30;84.94
44044;BME280;29709;52.396;16.796;2023-02-13T07:44:33;103708.27;;;7.27;85.00
44044;BME280;29709;52.396;16.796;2023-02-13T07:47:36;103705.03;;;7.18;84.73
44044;BME280;29709;52.396;16.796;2023-02-13T07:50:40;103705.79;;;7.22;84.80
44044;BME280;29709;52.396;16.796;2023-02-13T07:53:45;103702.25;;;7.20;84.42
44044;BME280;29709;52.396;16.796;2023-02-13T07:56:49;103697.70;;;7.19;84.19
44044;BME280;29709;52.396;16.796;2023-02-13T07:59:52;103698.67;;;7.18;83.98
44044;BME280;29709;52.396;16.796;2023-02-13T08:02:58;103691.31;;;7.20;83.67
44044;BME280;29709;52.396;16.796;2023-02-13T08:06:02;103702.88;;;7.25;83.68
44044;BME280;29709;52.396;16.796;2023-02-13T08:09:33;103709.92;;;7.31;83.40
44044;BME280;29709;52.396;16.796;2023-02-13T08:12:48;103705.25;;;7.33;83.55
44044;BME280;29709;52.396;16.796;2023-02-13T08:15:51;103708.96;;;7.32;83.20
44044;BME280;29709;52.396;16.796;2023-02-13T08:18:54;103708.27;;;7.27;83.08
44044;BME280;29709;52.396;16.796;2023-02-13T08:21:57;103705.70;;;7.23;82.59
44044;BME280;29709;52.396;16.796;2023-02-13T08:25:01;103695.66;;;7.24;82.41
44044;BME280;29709;52.396;16.796;2023-02-13T08:28:05;103711.98;;;7.26;82.35
44044;BME280;29709;52.396;16.796;2023-02-13T08:31:09;103702.60;;;7.31;82.28
44044;BME280;29709;52.396;16.796;2023-02-13T08:34:39;103706.23;;;7.32;81.86
44044;BME280;29709;52.396;16.796;2023-02-13T08:37:42;103705.09;;;7.36;81.22
44044;BME280;29709;52.396;16.796;2023-02-13T08:40:45;103707.62;;;7.40;82.23
44044;BME280;29709;52.396;16.796;2023-02-13T08:43:49;103696.72;;;7.39;81.43
44044;BME280;29709;52.396;16.796;2023-02-13T08:46:52;103697.85;;;7.35;81.12
44044;BME280;29709;52.396;16.796;2023-02-13T08:49:55;103700.00;;;7.28;80.78
44044;BME280;29709;52.396;16.796;2023-02-13T08:52:59;103694.47;;;7.30;81.02
44044;BME280;29709;52.396;16.796;2023-02-13T08:56:03;103702.72;;;7.28;80.84
44044;BME280;29709;52.396;16.796;2023-02-13T08:59:06;103702.72;;;7.28;80.88
44044;BME280;29709;52.396;16.796;2023-02-13T09:02:11;103696.70;;;7.21;81.03
44044;BME280;29709;52.396;16.796;2023-02-13T09:05:41;103698.46;;;7.22;81.46
44044;BME280;29709;52.396;16.796;2023-02-13T09:08:44;103700.16;;;7.25;81.37
44044;BME280;29709;52.396;16.796;2023-02-13T09:11:48;103698.23;;;7.27;81.03
44044;BME280;29709;52.396;16.796;2023-02-13T09:14:57;103697.05;;;7.33;81.04
44044;BME280;29709;52.396;16.796;2023-02-13T09:18:00;103693.71;;;7.26;81.27
44044;BME280;29709;52.396;16.796;2023-02-13T09:21:06;103695.41;;;7.29;81.31
44044;BME280;29709;52.396;16.796;2023-02-13T09:24:10;103696.80;;;7.37;81.42
44044;BME280;29709;52.396;16.796;2023-02-13T09:27:14;103703.91;;;7.41;80.83
44044;BME280;29709;52.396;16.796;2023-02-13T09:30:46;103708.63;;;7.38;81.13
44044;BME280;29709;52.396;16.796;2023-02-13T09:33:51;103700.30;;;7.41;80.82
44044;BME280;29709;52.396;16.796;2023-02-13T09:36:54;103692.09;;;7.41;80.53
44044;BME280;29709;52.396;16.796;2023-02-13T09:39:59;103705.97;;;7.36;80.75
44044;BME280;29709;52.396;16.796;2023-02-13T09:43:13;103705.02;;;7.37;80.49
44044;BME280;29709;52.396;16.796;2023-02-13T09:46:28;103702.52;;;7.33;80.49
44044;BME280;29709;52.396;16.796;2023-02-13T09:53:21;103703.91;;;7.41;80.87
44044;BME280;29709;52.396;16.796;2023-02-13T09:56:35;103698.35;;;7.43;80.80
44044;BME280;29709;52.396;16.796;2023-02-13T10:03:28;103701.73;;;7.48;80.88
44044;BME280;29709;52.396;16.796;2023-02-13T10:06:39;103697.90;;;7.52;80.49
44044;BME280;29709;52.396;16.796;2023-02-13T10:09:59;103700.30;;;7.58;80.27
44044;BME280;29709;52.396;16.796;2023-02-13T10:16:50;103703.12;;;7.57;80.15
44044;BME280;29709;52.396;16.796;2023-02-13T10:20:02;103699.67;;;7.53;80.37
44044;BME280;29709;52.396;16.796;2023-02-13T10:23:20;103692.98;;;7.59;80.01
44044;BME280;29709;52.396;16.796;2023-02-13T10:26:35;103709.02;;;7.66;79.80
44044;BME280;29709;52.396;16.796;2023-02-13T10:29:55;103688.80;;;7.69;80.02
44044;BME280;29709;52.396;16.796;2023-02-13T10:33:20;103695.16;;;7.69;79.47
44044;BME280;29709;52.396;16.796;2023-02-13T10:36:27;103693.27;;;7.71;79.56
44044;BME280;29709;52.396;16.796;2023-02-13T10:39:32;103686.81;;;7.72;78.86
44044;BME280;29709;52.396;16.796;2023-02-13T10:43:10;103684.13;;;7.71;78.92
44044;BME280;29709;52.396;16.796;2023-02-13T10:46:24;103693.90;;;7.76;78.68
44044;BME280;29709;52.396;16.796;2023-02-13T10:56:17;103691.15;;;7.76;78.02
44044;BME280;29709;52.396;16.796;2023-02-13T11:02:33;103686.39;;;7.80;77.69
44044;BME280;29709;52.396;16.796;2023-02-13T11:05:39;103677.30;;;7.79;77.92
44044;BME280;29709;52.396;16.796;2023-02-13T11:09:09;103686.73;;;7.74;77.73
44044;BME280;29709;52.396;16.796;2023-02-13T11:15:31;103677.06;;;7.67;78.05
44044;BME280;29709;52.396;16.796;2023-02-13T11:18:37;103675.13;;;7.69;78.83
44044;BME280;29709;52.396;16.796;2023-02-13T11:21:43;103676.97;;;7.68;78.84
44044;BME280;29709;52.396;16.796;2023-02-13T11:24:55;103681.09;;;7.77;78.66
44044;BME280;29709;52.396;16.796;2023-02-13T11:28:09;103680.29;;;7.75;78.62
44044;BME280;29709;52.396;16.796;2023-02-13T11:34:32;103668.05;;;7.82;78.53
44044;BME280;29709;52.396;16.796;2023-02-13T11:41:18;103668.99;;;7.81;78.52
44044;BME280;29709;52.396;16.796;2023-02-13T11:44:27;103660.95;;;7.78;77.82
44044;BME280;29709;52.396;16.796;2023-02-13T11:47:37;103665.54;;;7.77;77.82
44044;BME280;29709;52.396;16.796;2023-02-13T11:50:41;103667.23;;;7.80;78.29
44044;BME280;29709;52.396;16.796;2023-02-13T11:53:48;103667.31;;;7.78;77.82
44044;BME280;29709;52.396;16.796;2023-02-13T11:57:21;103661.70;;;7.81;77.98
44044;BME280;29709;52.396;16.796;2023-02-13T12:00:29;103644.85;;;7.89;77.48
44044;BME280;29709;52.396;16.796;2023-02-13T12:03:40;103648.73;;;7.85;77.17
44044;BME280;29709;52.396;16.796;2023-02-13T12:10:10;103660.39;;;7.89;76.48
44044;BME280;29709;52.396;16.796;2023-02-13T12:13:24;103656.36;;;7.96;77.67
44044;BME280;29709;52.396;16.796;2023-02-13T12:16:37;103660.61;;;8.01;77.24
44044;BME280;29709;52.396;16.796;2023-02-13T12:19:45;103666.03;;;8.03;76.60
44044;BME280;29709;52.396;16.796;2023-02-13T12:36:01;103650.22;;;8.08;76.71
44044;BME280;29709;52.396;16.796;2023-02-13T12:39:17;103635.55;;;8.09;76.84
44044;BME280;29709;52.396;16.796;2023-02-13T12:42:32;103642.98;;;8.07;76.12
44044;BME280;29709;52.396;16.796;2023-02-13T12:45:46;103646.20;;;7.98;76.18
44044;BME280;29709;52.396;16.796;2023-02-13T12:49:07;103651.06;;;7.93;76.21
44044;BME280;29709;52.396;16.796;2023-02-13T13:11:52;103606.02;;;7.81;76.72
44044;BME280;29709;52.396;16.796;2023-02-13T13:18:18;103606.86;;;7.83;76.95
44044;BME280;29709;52.396;16.796;2023-02-13T13:21:37;103599.35;;;7.87;76.54
44044;BME280;29709;52.396;16.796;2023-02-13T13:28:04;103611.67;;;7.78;76.13
44044;BME280;29709;52.396;16.796;2023-02-13T13:31:12;103601.78;;;7.75;75.89
44044;BME280;29709;52.396;16.796;2023-02-13T13:34:21;103588.09;;;7.75;75.92
44044;BME280;29709;52.396;16.796;2023-02-13T13:37:36;103582.44;;;7.78;76.22
44044;BME280;29709;52.396;16.796;2023-02-13T13:44:11;103565.04;;;7.79;75.69
44044;BME280;29709;52.396;16.796;2023-02-13T13:47:19;103551.35;;;7.79;75.45
44044;BME280;29709;52.396;16.796;2023-02-13T13:50:26;103551.35;;;7.79;75.23
44044;BME280;29709;52.396;16.796;2023-02-13T13:54:33;103538.72;;;7.77;75.03
44044;BME280;29709;52.396;16.796;2023-02-13T14:07:25;103564.08;;;7.80;74.75
44044;BME280;29709;52.396;16.796;2023-02-13T14:11:01;103570.81;;;7.91;74.37
44044;BME280;29709;52.396;16.796;2023-02-13T14:14:58;103578.45;;;8.01;74.08
44044;BME280;29709;52.396;16.796;2023-02-13T14:20:37;103568.38;;;8.02;73.86
44044;BME280;29709;52.396;16.796;2023-02-13T14:23:46;103564.61;;;8.04;72.85
44044;BME280;29709;52.396;16.796;2023-02-13T14:26:55;103558.33;;;8.02;72.93
44044;BME280;29709;52.396;16.796;2023-02-13T14:30:00;103556.71;;;7.98;72.90
44044;BME280;29709;52.396;16.796;2023-02-13T14:33:30;103557.86;;;7.94;72.66
44044;BME280;29709;52.396;16.796;2023-02-13T14:36:37;103552.21;;;7.97;72.18
44044;BME280;29709;52.396;16.796;2023-02-13T14:39:42;103561.39;;;7.96;71.94
44044;BME280;29709;52.396;16.796;2023-02-13T14:42:54;103557.86;;;7.94;72.21
44044;BME280;29709;52.396;16.796;2023-02-13T14:49:25;103562.55;;;7.92;72.41
44044;BME280;29709;52.396;16.796;2023-02-13T14:52:38;103555.21;;;7.93;72.05
44044;BME280;29709;52.396;16.796;2023-02-13T14:55:47;103550.95;;;7.87;71.78
44044;BME280;29709;52.396;16.796;2023-02-13T14:59:04;103547.05;;;7.91;72.01
44044;BME280;29709;52.396;16.796;2023-02-13T15:02:17;103555.63;;;7.85;71.96
44044;BME280;29709;52.396;16.796;2023-02-13T15:05:29;103551.26;;;7.81;71.38
44044;BME280;29709;52.396;16.796;2023-02-13T15:08:39;103555.05;;;7.78;71.83
44044;BME280;29709;52.396;16.796;2023-02-13T15:11:44;103554.26;;;7.76;71.21
44044;BME280;29709;52.396;16.796;2023-02-13T15:21:51;103562.48;;;7.76;70.48
44044;BME280;29709;52.396;16.796;2023-02-13T15:24:56;103569.16;;;7.71;69.86
44044;BME280;29709;52.396;16.796;2023-02-13T15:28:02;103565.13;;;7.78;70.49
44044;BME280;29709;52.396;16.796;2023-02-13T15:34:26;103568.04;;;7.75;70.62
44044;BME280;29709;52.396;16.796;2023-02-13T15:37:30;103564.89;;;7.83;70.81
44044;BME280;29709;52.396;16.796;2023-02-13T15:41:02;103576.16;;;7.76;69.77
44044;BME280;29709;52.396;16.796;2023-02-13T15:44:06;103562.74;;;7.72;69.64
44044;BME280;29709;52.396;16.796;2023-02-13T15:50:32;103551.84;;;7.70;69.52
44044;BME280;29709;52.396;16.796;2023-02-13T15:53:36;103559.12;;;7.71;70.23
44044;BME280;29709;52.396;16.796;2023-02-13T15:56:43;103554.76;;;7.67;69.57
44044;BME280;29709;52.396;16.796;2023-02-13T15:59:49;103557.33;;;7.70;70.23
44044;BME280;29709;52.396;16.796;2023-02-13T16:02:56;103556.20;;;7.74;69.93
44044;BME280;29709;52.396;16.796;2023-02-13T16:06:00;103537.04;;;7.74;70.13
44044;BME280;29709;52.396;16.796;2023-02-13T16:09:32;103536.48;;;7.68;70.14
44044;BME280;29709;52.396;16.796;2023-02-13T16:12:35;103532.07;;;7.65;70.16
44044;BME280;29709;52.396;16.796;2023-02-13T16:15:42;103529.23;;;7.67;69.80
44044;BME280;29709;52.396;16.796;2023-02-13T16:18:45;103554.19;;;7.61;69.69
44044;BME280;29709;52.396;16.796;2023-02-13T16:21:49;103536.56;;;7.66;70.40
44044;BME280;29709;52.396;16.796;2023-02-13T16:24:57;103541.16;;;7.66;70.60
44044;BME280;29709;52.396;16.796;2023-02-13T16:28:15;103554.58;;;7.70;70.30
44044;BME280;29709;52.396;16.796;2023-02-13T16:31:20;103549.09;;;7.70;70.42
44044;BME280;29709;52.396;16.796;2023-02-13T16:34:27;103547.52;;;7.66;70.02
44044;BME280;29709;52.396;16.796;2023-02-13T16:37:32;103545.66;;;7.67;70.23
44044;BME280;29709;52.396;16.796;2023-02-13T16:40:40;103553.30;;;7.60;70.21
44044;BME280;29709;52.396;16.796;2023-02-13T16:43:49;103552.52;;;7.58;70.43
44044;BME280;29709;52.396;16.796;2023-02-13T16:53:19;103559.75;;;7.59;70.74
44044;BME280;29709;52.396;16.796;2023-02-13T16:56:58;103553.56;;;7.56;70.64
44044;BME280;29709;52.396;16.796;2023-02-13T17:03:21;103541.91;;;7.52;70.56
44044;BME280;29709;52.396;16.796;2023-02-13T17:06:24;103531.98;;;7.49;70.48
44044;BME280;29709;52.396;16.796;2023-02-13T17:09:27;103536.57;;;7.49;70.36
44044;BME280;29709;52.396;16.796;2023-02-13T17:12:34;103563.32;;;7.44;70.24
44044;BME280;29709;52.396;16.796;2023-02-13T17:16:04;103563.48;;;7.41;70.23
44044;BME280;29709;52.396;16.796;2023-02-13T17:19:07;103551.66;;;7.40;69.96
44044;BME280;29709;52.396;16.796;2023-02-13T17:22:19;103566.23;;;7.41;70.04
44044;BME280;29709;52.396;16.796;2023-02-13T17:25:30;103567.98;;;7.42;70.09
44044;BME280;29709;52.396;16.796;2023-02-13T17:28:34;103569.09;;;7.38;70.12
44044;BME280;29709;52.396;16.796;2023-02-13T17:31:37;103560.34;;;7.31;69.85
44044;BME280;29709;52.396;16.796;2023-02-13T17:34:40;103575.04;;;7.29;69.81
44044;BME280;29709;52.396;16.796;2023-02-13T17:38:11;103573.27;;;7.28;70.36
44044;BME280;29709;52.396;16.796;2023-02-13T17:41:15;103573.27;;;7.28;70.42
44044;BME280;29709;52.396;16.796;2023-02-13T17:44:18;103562.24;;;7.29;70.28
44044;BME280;29709;52.396;16.796;2023-02-13T17:47:22;103570.23;;;7.34;70.40
44044;BME280;29709;52.396;16.796;2023-02-13T17:50:28;103563.48;;;7.41;70.18
44044;BME280;29709;52.396;16.796;2023-02-13T17:53:33;103567.81;;;7.45;70.64
44044;BME280;29709;52.396;16.796;2023-02-13T17:56:36;103564.41;;;7.40;70.06
44044;BME280;29709;52.396;16.796;2023-02-13T17:59:40;103565.47;;;7.37;70.14
44044;BME280;29709;52.396;16.796;2023-02-13T18:02:43;103574.65;;;7.36;70.60
44044;BME280;29709;52.396;16.796;2023-02-13T18:06:14;103566.84;;;7.29;70.30
44044;BME280;29709;52.396;16.796;2023-02-13T18:09:18;103571.41;;;7.28;70.35
44044;BME280;29709;52.396;16.796;2023-02-13T18:12:23;103563.97;;;7.32;70.54
44044;BME280;29709;52.396;16.796;2023-02-13T18:15:26;103562.09;;;7.32;70.45
44044;BME280;29709;52.396;16.796;2023-02-13T18:18:29;103572.24;;;7.30;70.28
44044;BME280;29709;52.396;16.796;2023-02-13T18:21:33;103564.09;;;7.29;70.21
44044;BME280;29709;52.396;16.796;2023-02-13T18:24:39;103566.99;;;7.26;70.34
44044;BME280;29709;52.396;16.796;2023-02-13T18:27:42;103564.26;;;7.26;70.42
44044;BME280;29709;52.396;16.796;2023-02-13T18:30:46;103575.91;;;7.29;70.65
44044;BME280;29709;52.396;16.796;2023-02-13T18:34:20;103577.05;;;7.25;70.79
44044;BME280;29709;52.396;16.796;2023-02-13T18:37:24;103564.26;;;7.26;70.66
44044;BME280;29709;52.396;16.796;2023-02-13T18:40:31;103572.64;;;7.22;70.54
44044;BME280;29709;52.396;16.796;2023-02-13T18:43:34;103571.51;;;7.27;70.11
44044;BME280;29709;52.396;16.796;2023-02-13T18:46:37;103572.56;;;7.24;70.45
44044;BME280;29709;52.396;16.796;2023-02-13T18:49:41;103587.37;;;7.20;70.28
44044;BME280;29709;52.396;16.796;2023-02-13T18:52:44;103578.41;;;7.16;70.47
44044;BME280;29709;52.396;16.796;2023-02-13T18:55:48;103577.30;;;7.20;70.55
44044;BME280;29709;52.396;16.796;2023-02-13T18:58:51;103586.40;;;7.21;70.29
44044;BME280;29709;52.396;16.796;2023-02-13T19:02:20;103595.77;;;7.15;70.80